LGIR/HER METAR and TAF weather

Enter ICAO airport designator
Station Type Date Time Source
LGIR METAR 2022/07/03 14:50 UTC NOAA

LGIR 031450Z 30017KT 9999 FEW020 28/20 Q1011 NOSIG


Station Type Date Time Source
LGIR Decoded METAR 2022/07/03 14:50 UTC NOAA

Heraklion Airport , Greece (LGIR) 35-20N 025-11E 39M
Jul 03, 2022 - 10:50 AM EDT / 2022.07.03 1450 UTC
Wind: from the WNW (300 degrees) at 20 MPH (17 KT):0
Visibility: greater than 7 mile(s):0
Sky conditions: mostly clear
Temperature: 82 F (28 C)
Dew Point: 68 F (20 C)
Relative Humidity: 61%
Pressure (altimeter): 29.85 in. Hg (1011 hPa)
ob: LGIR 031450Z 30017KT 9999 FEW020 28/20 Q1011 NOSIG
cycle: 15

Station Type Date Time Source
LGIR TAF 2022/07/03 12:13 UTC NOAA

TAF LGIR 031100Z 0312/0412 31020KT 9999 FEW020

Example: see airport list